Time;durP1;ratioP1;P1;durP2;ratioP2;P2;SDS_P1;SDS_P2;PMS_P1;PMS_P2;Temp;Humidity;BMP_temperature;BMP_pressure;BME280_temperature;BME280_humidity;BME280_pressure;Samples;Min_cycle;Max_cycle;Signal;HPM_P1;HPM_P2
2022/12/26 00:01:04;;;;;;;3.40;1.90;;;;;;;14.61;59.26;97024.09;4934937;28;20524;-77
2022/12/26 00:03:29;;;;;;;2.90;2.50;;;;;;;14.48;59.22;97008.94;4939709;28;20277;-77
2022/12/26 00:05:55;;;;;;;3.75;2.70;;;;;;;14.54;59.46;97010.50;4975347;28;20213;-77
2022/12/26 00:08:20;;;;;;;3.80;2.25;;;;;;;14.50;59.60;97004.25;4938035;28;20242;-77
2022/12/26 00:10:45;;;;;;;2.53;2.20;;;;;;;14.60;59.29;97023.31;4958126;28;20183;-77
2022/12/26 00:13:11;;;;;;;2.90;2.28;;;;;;;14.65;58.76;97016.44;4942653;28;20767;-77
2022/12/26 00:15:40;;;;;;;3.50;2.28;;;;;;;14.55;59.49;97017.31;4941743;28;20118;-77
2022/12/26 00:18:05;;;;;;;2.70;2.15;;;;;;;14.51;59.33;97021.50;4942306;28;20202;-77
2022/12/26 00:20:31;;;;;;;3.58;2.58;;;;;;;14.12;60.48;97024.88;4923273;28;20580;-76
2022/12/26 00:22:56;;;;;;;2.75;2.10;;;;;;;14.37;59.78;97022.13;4967935;28;20327;-76
2022/12/26 00:25:21;;;;;;;3.75;2.47;;;;;;;14.42;59.59;97029.16;4923635;28;20314;-77
2022/12/26 00:27:47;;;;;;;2.90;2.60;;;;;;;14.47;59.57;97023.88;4977912;28;20396;-77
2022/12/26 00:30:12;;;;;;;4.07;2.80;;;;;;;14.35;59.95;97023.47;4940776;28;20221;-77
2022/12/26 00:32:37;;;;;;;3.60;2.00;;;;;;;14.50;59.58;97004.25;4954817;28;20313;-77
2022/12/26 00:35:03;;;;;;;4.20;2.25;;;;;;;14.30;59.79;97015.63;4934032;28;20259;-76
2022/12/26 00:37:28;;;;;;;3.35;2.10;;;;;;;14.59;59.07;97023.56;4953246;28;20192;-77
2022/12/26 00:39:55;;;;;;;3.08;2.30;;;;;;;14.27;60.04;97024.81;4958092;28;20448;-76
2022/12/26 00:42:20;;;;;;;2.63;2.10;;;;;;;14.41;59.57;97017.91;4952137;28;20514;-76
2022/12/26 00:44:45;;;;;;;3.70;2.50;;;;;;;14.48;59.26;97019.44;4919896;28;20216;-77
2022/12/26 00:47:11;;;;;;;4.10;2.10;;;;;;;14.46;59.55;97008.44;4954479;28;20232;-77
2022/12/26 00:49:36;;;;;;;4.68;2.10;;;;;;;14.32;59.58;97014.28;4942130;28;20202;-76
2022/12/26 00:52:01;;;;;;;3.22;2.05;;;;;;;14.49;59.46;97006.06;4975046;28;20296;-75
2022/12/26 00:54:27;;;;;;;3.08;2.00;;;;;;;14.63;58.97;97006.25;4974717;28;20116;-77
2022/12/26 00:56:52;;;;;;;3.75;2.42;;;;;;;14.57;58.97;97000.25;4937872;28;20530;-77
2022/12/26 00:59:17;;;;;;;4.20;2.10;;;;;;;14.63;58.93;96990.53;4953840;28;20344;-77
2022/12/26 01:01:43;;;;;;;3.22;1.92;;;;;;;14.47;59.21;96983.81;4944488;28;20173;-77
2022/12/26 01:04:08;;;;;;;2.92;2.10;;;;;;;14.33;59.67;97007.25;4920197;28;20291;-77
2022/12/26 01:06:33;;;;;;;2.85;2.03;;;;;;;14.34;59.59;97014.81;4937496;28;20276;-77
2022/12/26 01:08:59;;;;;;;4.32;2.08;;;;;;;14.57;59.01;97030.91;4970092;28;20256;-77
2022/12/26 01:11:39;;;;;;;2.90;2.17;;;;;;;14.73;58.58;97045.47;4952042;28;20284;-77
2022/12/26 01:14:07;;;;;;;3.55;2.10;;;;;;;14.74;58.75;97048.91;4973781;28;20059;-77
2022/12/26 01:16:32;;;;;;;3.25;2.03;;;;;;;14.78;58.22;97028.94;4947383;28;20288;-77
2022/12/26 01:18:58;;;;;;;3.08;2.08;;;;;;;14.69;58.56;97039.22;4946172;28;20339;-77
2022/12/26 01:21:23;;;;;;;2.70;1.80;;;;;;;14.54;58.74;97040.06;4921027;28;20188;-77
2022/12/26 01:23:48;;;;;;;4.68;2.20;;;;;;;14.41;59.21;97035.44;4971671;28;20200;-77
2022/12/26 01:26:14;;;;;;;3.80;2.08;;;;;;;14.43;59.02;97042.00;4971576;28;20101;-76
2022/12/26 01:28:39;;;;;;;4.38;2.28;;;;;;;14.68;58.80;97042.88;4942325;28;20325;-76
2022/12/26 01:31:05;;;;;;;2.50;1.88;;;;;;;14.77;58.25;97046.50;4953541;28;20262;-77
2022/12/26 01:33:31;;;;;;;4.47;2.15;;;;;;;14.43;59.46;97042.00;4924702;28;20563;-77
2022/12/26 01:35:57;;;;;;;3.88;2.05;;;;;;;14.54;58.96;97052.41;4945997;28;20283;-76
2022/12/26 01:38:23;;;;;;;4.07;2.20;;;;;;;14.41;59.46;97051.97;4933063;28;20261;-76
2022/12/26 01:41:15;;;;;;;4.35;2.03;;;;;;;14.31;59.68;97059.88;4916198;28;20197;-75
2022/12/26 01:43:47;;;;;;;;;;;;;;;15.04;57.90;97054.94;4950059;28;20417;-77
2022/12/26 01:46:13;;;;;;;3.47;1.85;;;;;;;15.06;57.91;97053.63;4958060;28;20645;-77
2022/12/26 01:48:39;;;;;;;3.42;1.95;;;;;;;14.87;58.15;97071.84;4938121;28;20312;-76
2022/12/26 01:51:05;;;;;;;4.53;1.90;;;;;;;15.11;57.66;97068.50;4956386;28;20564;-77
2022/12/26 01:53:36;;;;;;;3.75;2.30;;;;;;;14.66;58.66;97062.56;4938185;28;20192;-76
2022/12/26 01:56:12;;;;;;;2.15;1.50;;;;;;;14.91;58.44;97082.59;4923102;28;20693;-77
2022/12/26 01:58:48;;;;;;;3.53;2.10;;;;;;;15.05;58.11;97073.03;4920841;28;20620;-77
2022/12/26 02:01:14;;;;;;;5.40;2.30;;;;;;;14.44;59.41;97076.81;4922940;28;20255;-77
2022/12/26 02:06:27;;;;;;;2.78;2.10;;;;;;;15.06;57.47;97095.56;4951058;28;20184;-77
2022/12/26 02:08:52;;;;;;;3.65;1.55;;;;;;;14.83;58.12;97097.03;4954977;28;20139;-76
2022/12/26 02:11:21;;;;;;;2.83;2.10;;;;;;;15.02;57.78;97096.38;4937875;28;20255;-76
2022/12/26 02:13:46;;;;;;;2.28;1.85;;;;;;;14.99;57.72;97095.06;4953881;28;20199;-77
2022/12/26 02:16:14;;;;;;;3.38;2.00;;;;;;;15.09;57.69;97097.63;4973834;28;20390;-76
2022/12/26 02:18:40;;;;;;;3.45;2.22;;;;;;;15.04;57.89;97095.03;4955356;28;20242;-76
2022/12/26 02:21:23;;;;;;;3.30;1.98;;;;;;;15.08;58.07;97093.44;4944664;28;20749;-77
2022/12/26 02:24:13;;;;;;;4.03;1.92;;;;;;;15.16;57.41;97090.25;4937427;28;20273;-77
2022/12/26 02:27:20;;;;;;;3.00;1.85;;;;;;;15.15;57.21;97088.66;4972284;28;20196;-77
2022/12/26 02:30:04;;;;;;;2.28;1.88;;;;;;;15.34;56.96;97086.13;4967840;28;20311;-77
2022/12/26 02:33:00;;;;;;;4.03;2.00;;;;;;;15.16;57.59;97085.00;4950212;28;20204;-77
2022/12/26 02:35:44;;;;;;;4.28;2.00;;;;;;;14.78;58.41;97081.34;4956668;28;20406;-76
2022/12/26 02:38:48;;;;;;;2.83;1.92;;;;;;;15.08;57.94;97077.72;4953939;28;20250;-76
2022/12/26 02:41:51;;;;;;;3.17;1.75;;;;;;;15.26;57.02;97070.97;4900117;28;20198;-76
2022/12/26 02:47:46;;;;;;;3.53;2.05;;;;;;;15.26;56.76;97063.13;4951946;28;20283;-76
2022/12/26 03:13:29;;;;;;;2.83;1.98;;;;;;;15.04;57.96;97031.34;4938238;28;20021;-76
2022/12/26 03:18:41;;;;;;;;;;;;;;;14.98;58.10;97030.59;4962821;28;20033;-76
2022/12/26 03:21:07;;;;;;;4.68;3.03;;;;;;;14.53;59.38;97045.59;4938175;28;19971;-76
2022/12/26 03:23:33;;;;;;;3.20;1.80;;;;;;;14.72;58.73;97043.94;4938254;28;20036;-76
2022/12/26 03:28:48;;;;;;;3.78;2.00;;;;;;;14.57;59.04;97044.00;4932422;28;20554;-77
2022/12/26 03:31:14;;;;;;;3.13;1.85;;;;;;;14.87;58.50;97042.22;4920469;28;20096;-77
2022/12/26 03:36:47;;;;;;;3.03;2.22;;;;;;;15.08;57.77;97054.13;4927994;28;20104;-76
2022/12/26 04:20:48;;;;;;;1.77;1.42;;;;;;;14.78;58.04;97071.66;4975469;28;20094;-77
2022/12/26 04:44:08;;;;;;;2.30;1.77;;;;;;;14.88;58.43;97091.00;4924498;28;20209;-77
2022/12/26 04:46:36;;;;;;;3.33;1.90;;;;;;;14.72;59.37;97083.25;4921939;28;20073;-76
2022/12/26 04:51:49;;;;;;;5.03;2.40;;;;;;;14.97;58.31;97081.47;4961209;28;20021;-76
2022/12/26 04:54:14;;;;;;;3.50;2.00;;;;;;;14.57;59.56;97089.31;4956598;28;20154;-76
2022/12/26 04:56:40;;;;;;;4.82;1.95;;;;;;;14.63;59.52;97079.63;4939220;28;20219;-77
2022/12/26 04:59:05;;;;;;;5.72;2.17;;;;;;;14.87;58.95;97073.69;4941161;28;20433;-76
2022/12/26 05:09:45;;;;;;;3.10;2.10;;;;;;;14.93;58.83;97073.38;4959228;28;19920;-77
2022/12/26 05:12:11;;;;;;;3.55;2.00;;;;;;;14.87;58.57;97073.69;4938426;28;20044;-76
2022/12/26 05:14:36;;;;;;;4.28;2.38;;;;;;;14.78;58.97;97074.25;4923552;28;20302;-77
2022/12/26 05:30:55;;;;;;;4.25;2.00;;;;;;;14.79;59.78;97080.31;4942261;28;20033;-75
2022/12/26 05:36:05;;;;;;;3.67;2.10;;;;;;;14.85;59.59;97087.06;4949949;28;20044;-75
2022/12/26 05:38:30;;;;;;;2.92;2.00;;;;;;;14.97;59.31;97097.19;4925035;28;20559;-77
2022/12/26 05:40:55;;;;;;;5.10;1.95;;;;;;;14.83;59.88;97096.28;4924676;28;20092;-76
2022/12/26 05:43:21;;;;;;;2.92;2.08;;;;;;;14.63;60.81;97095.34;4947505;28;20742;-75
2022/12/26 05:45:47;;;;;;;2.88;1.98;;;;;;;14.70;60.66;97103.69;4922101;28;20025;-76
2022/12/26 05:48:12;;;;;;;3.35;2.30;;;;;;;14.77;60.69;97104.16;4968827;28;20252;-76
2022/12/26 05:50:37;;;;;;;2.55;2.30;;;;;;;14.70;61.03;97102.91;4934531;28;20659;-76
2022/12/26 05:53:03;;;;;;;3.05;2.47;;;;;;;14.95;59.97;97115.03;4946591;28;20090;-76
2022/12/26 05:55:28;;;;;;;3.60;2.00;;;;;;;15.05;59.72;97114.97;4920733;28;20672;-77
2022/12/26 05:57:55;;;;;;;4.43;2.80;;;;;;;14.60;61.36;97104.53;4933544;28;20614;-75
2022/12/26 06:00:20;;;;;;;5.28;2.65;;;;;;;14.77;61.45;97104.16;4934586;28;20049;-77
2022/12/26 06:02:46;;;;;;;4.68;2.50;;;;;;;14.35;63.36;97115.13;4935355;28;20067;-76
2022/12/26 06:05:11;;;;;;;4.13;2.05;;;;;;;14.70;62.57;97113.38;4928727;28;20731;-77
2022/12/26 06:07:36;;;;;;;5.00;2.97;;;;;;;14.68;62.89;97107.63;4937717;28;20790;-77
2022/12/26 06:10:03;;;;;;;3.63;2.60;;;;;;;14.74;62.84;97104.72;4936378;28;20029;-77
2022/12/26 06:12:28;;;;;;;3.85;2.58;;;;;;;14.65;62.95;97100.31;4933491;28;20124;-77
2022/12/26 06:14:54;;;;;;;4.35;2.40;;;;;;;14.47;64.32;97109.56;4920533;28;20226;-77
2022/12/26 06:17:19;;;;;;;4.07;2.72;;;;;;;14.24;65.05;97117.03;4945665;28;20390;-77
2022/12/26 06:19:44;;;;;;;4.22;2.80;;;;;;;14.40;64.36;97115.09;4955922;28;20021;-77
2022/12/26 06:22:10;;;;;;;4.03;2.42;;;;;;;14.33;64.77;97125.88;4973780;28;20029;-77
2022/12/26 06:24:35;;;;;;;5.90;2.83;;;;;;;14.53;64.73;97124.19;4939512;28;20115;-78
2022/12/26 06:27:00;;;;;;;5.70;2.80;;;;;;;14.56;64.37;97121.03;4955665;28;20165;-77
2022/12/26 06:29:26;;;;;;;3.50;2.67;;;;;;;14.43;64.63;97135.53;4954340;28;20025;-76
2022/12/26 06:31:51;;;;;;;4.60;3.20;;;;;;;14.50;64.47;97122.91;4954007;28;20301;-77
2022/12/26 06:34:17;;;;;;;6.75;3.30;;;;;;;14.46;64.49;97121.09;4943271;28;20033;-77
2022/12/26 06:36:43;;;;;;;7.07;3.20;;;;;;;14.35;65.48;97113.28;4938573;28;20071;-76
2022/12/26 06:39:08;;;;;;;5.13;2.70;;;;;;;14.59;64.59;97112.66;4955816;28;20033;-77
2022/12/26 06:41:33;;;;;;;4.43;2.75;;;;;;;14.22;66.00;97106.81;4950876;28;20756;-77
2022/12/26 06:43:59;;;;;;;3.50;2.80;;;;;;;14.39;65.16;97109.09;4943731;28;20056;-76
2022/12/26 06:46:25;;;;;;;4.15;2.85;;;;;;;14.43;65.16;97111.94;4956303;28;20552;-78
2022/12/26 06:48:51;;;;;;;4.60;2.75;;;;;;;14.43;65.52;97119.81;4939687;28;20124;-76
2022/12/26 06:51:22;;;;;;;3.03;2.35;;;;;;;14.40;65.59;97120.34;4945192;28;20029;-77
2022/12/26 06:53:48;;;;;;;5.53;2.97;;;;;;;14.50;64.83;97111.66;4922612;28;20028;-77
2022/12/26 06:56:19;;;;;;;5.22;2.90;;;;;;;14.22;66.70;97113.88;4927460;28;20686;-78
2022/12/26 06:58:45;;;;;;;5.15;3.08;;;;;;;14.27;65.95;97115.69;4939533;28;20029;-78
2022/12/26 07:01:16;;;;;;;5.35;3.22;;;;;;;14.23;66.56;97131.16;4950368;28;20041;-77
2022/12/26 07:03:43;;;;;;;4.63;2.58;;;;;;;14.38;65.49;97130.31;4952366;28;20028;-77
2022/12/26 07:06:18;;;;;;;3.85;2.97;;;;;;;14.66;65.12;97130.72;4971877;28;20029;-77
2022/12/26 07:08:44;;;;;;;6.22;3.67;;;;;;;14.54;64.88;97137.03;4950523;28;20021;-77
2022/12/26 07:11:14;;;;;;;5.35;3.20;;;;;;;14.37;66.11;97142.59;4936620;28;20201;-77
2022/12/26 07:13:40;;;;;;;5.00;2.90;;;;;;;14.44;65.32;97137.06;4940595;28;20619;-78
2022/12/26 07:16:06;;;;;;;5.60;3.42;;;;;;;14.31;65.80;97154.19;4930758;28;20048;-78
2022/12/26 07:18:31;;;;;;;5.90;3.60;;;;;;;14.39;65.72;97153.63;4976353;28;20029;-77
2022/12/26 07:20:56;;;;;;;5.13;3.28;;;;;;;14.06;66.78;97155.03;4976630;28;20338;-76
2022/12/26 07:23:22;;;;;;;5.75;3.53;;;;;;;14.28;66.08;97148.69;4939687;28;20095;-77
2022/12/26 07:25:47;;;;;;;4.35;3.00;;;;;;;14.17;66.78;97153.16;4937142;28;20162;-76
2022/12/26 07:28:14;;;;;;;5.32;3.30;;;;;;;14.29;65.85;97161.53;4926436;28;20103;-78
2022/12/26 07:30:45;;;;;;;5.07;3.22;;;;;;;14.49;65.73;97167.72;4959146;28;20227;-77
2022/12/26 07:33:10;;;;;;;6.43;3.42;;;;;;;14.40;65.89;97157.78;4950450;28;20322;-76
2022/12/26 07:35:36;;;;;;;5.65;3.80;;;;;;;14.30;65.70;97157.84;4937223;28;20029;-77
2022/12/26 07:38:01;;;;;;;5.35;3.25;;;;;;;14.31;66.04;97161.22;4958387;28;20068;-76
2022/12/26 07:40:28;;;;;;;4.78;3.42;;;;;;;14.13;66.19;97145.06;4925784;28;20154;-77
2022/12/26 07:42:53;;;;;;;6.47;3.10;;;;;;;14.25;66.36;97160.47;4954190;28;20048;-77
2022/12/26 07:45:18;;;;;;;4.72;3.10;;;;;;;14.20;66.31;97166.50;4958243;28;20118;-76
2022/12/26 07:47:44;;;;;;;4.65;3.55;;;;;;;14.41;65.88;97187.38;4925909;28;20039;-77
2022/12/26 07:50:09;;;;;;;3.95;3.00;;;;;;;14.25;66.09;97178.81;4930494;28;20029;-77
2022/12/26 07:52:34;;;;;;;4.32;2.95;;;;;;;14.25;65.38;97181.41;4942026;28;20095;-77
2022/12/26 07:55:00;;;;;;;6.75;3.28;;;;;;;14.32;65.74;97184.53;4942010;28;20037;-77
2022/12/26 07:57:25;;;;;;;3.45;2.95;;;;;;;14.24;65.68;97196.38;4910400;28;20719;-78
2022/12/26 07:59:50;;;;;;;3.58;2.50;;;;;;;14.18;66.11;97197.41;4957317;28;20032;-77
2022/12/26 08:02:16;;;;;;;4.57;3.45;;;;;;;14.09;66.06;97196.41;4941260;28;20689;-77
2022/12/26 08:04:41;;;;;;;3.60;2.85;;;;;;;14.23;66.21;97212.34;4942293;28;20741;-76
2022/12/26 08:07:07;;;;;;;4.18;2.58;;;;;;;14.28;65.64;97216.78;4925876;28;20035;-77
2022/12/26 08:09:32;;;;;;;4.40;2.60;;;;;;;14.31;65.28;97214.41;4942386;28;20885;-77
2022/12/26 08:11:57;;;;;;;3.72;2.80;;;;;;;14.29;65.77;97215.72;4921879;28;20052;-76
2022/12/26 08:14:23;;;;;;;4.07;2.55;;;;;;;14.10;66.00;97210.28;4940756;28;20695;-78
2022/12/26 08:16:48;;;;;;;3.47;2.58;;;;;;;14.30;65.55;97220.69;4958029;28;20625;-76
2022/12/26 08:19:13;;;;;;;3.83;2.63;;;;;;;14.20;65.72;97212.88;4924576;28;20028;-77
2022/12/26 08:21:39;;;;;;;2.67;2.15;;;;;;;14.09;65.88;97214.72;4941403;28;20638;-77
2022/12/26 08:24:04;;;;;;;3.45;2.30;;;;;;;14.09;66.48;97213.97;4956756;28;20782;-77
2022/12/26 08:26:30;;;;;;;4.82;2.72;;;;;;;13.98;66.17;97211.38;4935751;28;20663;-77
2022/12/26 08:29:20;;;;;;;4.43;2.45;;;;;;;14.00;66.21;97201.41;4958008;28;20205;-77
2022/12/26 08:31:45;;;;;;;3.40;2.50;;;;;;;13.84;67.04;97203.25;4936893;28;20455;-75
2022/12/26 08:34:12;;;;;;;5.05;2.85;;;;;;;13.94;67.00;97194.59;4932427;28;20034;-77
2022/12/26 08:36:38;;;;;;;3.55;2.50;;;;;;;13.93;66.54;97205.34;4921293;28;20257;-78
2022/12/26 08:39:03;;;;;;;5.07;2.90;;;;;;;13.97;66.38;97193.28;4946701;28;20493;-78
2022/12/26 08:41:28;;;;;;;4.40;2.42;;;;;;;14.01;66.67;97187.25;4937651;28;20124;-77
2022/12/26 08:43:54;;;;;;;3.83;2.70;;;;;;;14.10;66.27;97186.72;4949654;28;20052;-78
2022/12/26 08:46:20;;;;;;;4.18;2.63;;;;;;;14.05;66.54;97190.13;4941842;28;20040;-78
2022/12/26 08:48:46;;;;;;;2.95;2.10;;;;;;;13.79;67.07;97205.09;4957090;28;20025;-75
2022/12/26 08:51:17;;;;;;;3.67;2.50;;;;;;;14.02;66.64;97215.00;4952616;28;20033;-76
2022/12/26 08:53:44;;;;;;;4.28;2.13;;;;;;;13.60;67.47;97234.41;4936505;28;20044;-76
2022/12/26 08:56:13;;;;;;;2.75;2.05;;;;;;;14.04;66.91;97243.53;4950222;28;20033;-76
2022/12/26 08:58:39;;;;;;;3.28;2.45;;;;;;;13.88;66.55;97242.78;4957566;28;20075;-77
2022/12/26 09:01:15;;;;;;;3.45;2.10;;;;;;;14.10;66.63;97262.63;4939457;28;20075;-76
2022/12/26 09:03:41;;;;;;;4.30;2.38;;;;;;;13.95;66.76;97251.16;4937295;28;20025;-77
2022/12/26 09:06:07;;;;;;;5.75;2.50;;;;;;;13.95;66.99;97248.53;4935726;28;20094;-77
2022/12/26 09:08:33;;;;;;;2.88;2.40;;;;;;;14.15;66.18;97250.31;4924278;28;20096;-78
2022/12/26 09:11:07;;;;;;;3.28;1.80;;;;;;;14.10;66.30;97231.22;4940962;28;20750;-77
2022/12/26 09:13:33;;;;;;;4.97;2.20;;;;;;;13.95;66.92;97219.75;4923894;28;20184;-78
2022/12/26 09:16:08;;;;;;;3.10;1.95;;;;;;;14.14;66.26;97250.59;4936486;28;20298;-76
2022/12/26 09:18:34;;;;;;;3.72;2.47;;;;;;;14.12;66.75;97256.09;4973037;28;20639;-77
2022/12/26 09:21:00;;;;;;;3.28;2.00;;;;;;;14.14;66.06;97258.47;4952899;28;20033;-77
2022/12/26 09:23:26;;;;;;;2.90;1.88;;;;;;;13.93;66.77;97266.34;4922295;28;20095;-76
2022/12/26 09:25:52;;;;;;;3.63;2.30;;;;;;;13.91;67.03;97284.13;4973704;28;20578;-76
2022/12/26 09:28:17;;;;;;;2.40;2.10;;;;;;;13.87;67.16;97293.56;4912223;28;20025;-77
2022/12/26 09:30:43;;;;;;;2.25;2.00;;;;;;;13.77;67.77;97288.31;4972219;28;20250;-77
2022/12/26 09:33:09;;;;;;;2.40;2.08;;;;;;;14.04;67.09;97280.97;4921150;28;20025;-77
2022/12/26 09:35:38;;;;;;;2.83;2.10;;;;;;;14.19;66.37;97288.03;4938501;28;20228;-76
2022/12/26 09:38:04;;;;;;;2.78;2.13;;;;;;;14.16;66.67;97287.78;4950286;28;20025;-77
2022/12/26 09:40:40;;;;;;;4.10;2.95;;;;;;;14.22;66.30;97268.38;4948811;28;20094;-77
2022/12/26 09:43:22;;;;;;;3.22;2.10;;;;;;;14.36;65.91;97271.22;4954871;28;20021;-76
2022/12/26 09:46:05;;;;;;;3.13;2.30;;;;;;;14.38;66.17;97267.28;4919307;28;20079;-77
2022/12/26 09:48:38;;;;;;;2.50;2.17;;;;;;;14.24;66.69;97274.94;4937965;28;20708;-76
2022/12/26 09:51:04;;;;;;;5.20;2.63;;;;;;;14.19;66.69;97282.00;4931344;28;20148;-76
2022/12/26 09:53:34;;;;;;;4.40;3.20;;;;;;;14.15;66.45;97280.97;4920985;28;20658;-76
2022/12/26 09:56:07;;;;;;;5.50;2.50;;;;;;;14.01;67.39;97288.56;4928489;28;20788;-76
2022/12/26 09:58:55;;;;;;;4.07;2.50;;;;;;;14.24;66.20;97293.25;4921507;28;20036;-77
2022/12/26 10:01:25;;;;;;;3.38;2.10;;;;;;;14.08;67.05;97283.06;4934290;28;20271;-76
2022/12/26 10:03:55;;;;;;;3.80;2.00;;;;;;;14.01;67.12;97284.09;4947351;28;20034;-77
2022/12/26 10:06:33;;;;;;;2.92;2.15;;;;;;;14.37;66.20;97283.28;4931859;28;20895;-77
2022/12/26 10:09:18;;;;;;;3.05;1.70;;;;;;;14.07;67.07;97268.41;4934403;28;20034;-76
2022/12/26 10:12:03;;;;;;;4.22;2.20;;;;;;;14.23;66.72;97283.03;4921114;28;20225;-77
2022/12/26 10:14:54;;;;;;;2.45;1.98;;;;;;;14.04;67.12;97291.44;4952375;28;20103;-77
2022/12/26 10:17:22;;;;;;;3.75;2.15;;;;;;;14.22;65.96;97297.19;4921761;28;20036;-77
2022/12/26 10:20:00;;;;;;;4.68;2.83;;;;;;;14.13;66.18;97301.38;4954856;28;20071;-77
2022/12/26 10:22:51;;;;;;;3.63;2.30;;;;;;;14.18;67.03;97294.31;4972847;28;20020;-76
2022/12/26 10:25:20;;;;;;;3.53;2.13;;;;;;;14.27;65.83;97302.41;4955296;28;20679;-77
2022/12/26 10:27:48;;;;;;;3.17;1.95;;;;;;;14.15;66.67;97292.22;4940976;28;20684;-78
2022/12/26 10:30:19;;;;;;;5.10;2.55;;;;;;;14.07;66.93;97292.75;4922329;28;20048;-76
2022/12/26 10:32:50;;;;;;;2.33;2.10;;;;;;;13.75;68.16;97287.81;4947501;28;20758;-77
2022/12/26 10:35:31;;;;;;;3.42;2.45;;;;;;;14.17;67.16;97303.22;4934647;28;20716;-77
2022/12/26 10:38:00;;;;;;;3.72;2.92;;;;;;;14.04;67.66;97304.53;4922325;28;20716;-76
2022/12/26 10:40:37;;;;;;;2.40;2.20;;;;;;;13.90;67.24;97292.22;4950916;28;20258;-77
2022/12/26 10:43:24;;;;;;;2.72;2.28;;;;;;;14.38;66.42;97296.09;4916844;28;20192;-77
2022/12/26 10:46:10;;;;;;;2.95;2.13;;;;;;;14.37;66.68;97291.91;4936607;28;20037;-76
2022/12/26 10:48:36;;;;;;;2.70;2.35;;;;;;;14.26;66.54;97300.84;4947079;28;20025;-77
2022/12/26 10:51:02;;;;;;;4.55;2.95;;;;;;;14.28;66.46;97296.13;4936919;28;20090;-77
2022/12/26 10:53:27;;;;;;;4.28;2.85;;;;;;;14.36;66.11;97292.16;4921443;28;20029;-77
2022/12/26 10:55:53;;;;;;;3.75;2.10;;;;;;;14.20;66.97;97297.44;4952723;28;20925;-76
2022/12/26 10:58:22;;;;;;;3.03;2.20;;;;;;;13.99;67.49;97299.31;4934080;28;20120;-76
2022/12/26 11:00:48;;;;;;;3.65;2.00;;;;;;;14.28;67.03;97309.22;4920307;28;20028;-76
2022/12/26 11:03:16;;;;;;;2.75;2.33;;;;;;;14.40;66.71;97312.34;4952641;28;20296;-77
2022/12/26 11:05:43;;;;;;;2.05;1.77;;;;;;;14.35;65.94;97309.72;4953205;28;20996;-77
2022/12/26 11:08:25;;;;;;;3.08;2.08;;;;;;;14.58;65.83;97299.72;4919587;28;20326;-75
2022/12/26 11:11:07;;;;;;;2.78;2.00;;;;;;;14.41;67.04;97315.72;4937549;28;20697;-77
2022/12/26 11:13:45;;;;;;;4.55;2.33;;;;;;;14.37;66.34;97307.63;4935727;28;20033;-77
2022/12/26 11:16:10;;;;;;;2.00;1.77;;;;;;;14.26;66.96;97313.94;4921426;28;20021;-78
2022/12/26 11:18:56;;;;;;;3.10;2.15;;;;;;;14.62;65.84;97303.41;4933682;28;20032;-77
2022/12/26 11:21:27;;;;;;;5.80;2.45;;;;;;;14.70;66.21;97305.50;4935760;28;20041;-78
2022/12/26 11:24:15;;;;;;;2.30;2.00;;;;;;;14.81;64.55;97295.75;4951133;28;20387;-77
2022/12/26 11:26:40;;;;;;;3.47;2.13;;;;;;;14.65;66.09;97308.13;4933673;28;20184;-76
2022/12/26 11:29:20;;;;;;;2.88;2.15;;;;;;;14.52;65.61;97304.19;4935484;28;20017;-77
2022/12/26 11:32:17;;;;;;;2.45;2.00;;;;;;;14.60;64.83;97303.69;4954816;28;20340;-77
2022/12/26 11:34:46;;;;;;;3.92;2.60;;;;;;;14.53;66.09;97297.09;4941882;28;20813;-76
2022/12/26 11:37:29;;;;;;;4.50;2.58;;;;;;;14.50;65.79;97305.53;4933904;28;20037;-76
2022/12/26 11:39:55;;;;;;;4.55;1.98;;;;;;;14.36;66.77;97305.28;4952183;28;20246;-77
2022/12/26 11:42:22;;;;;;;4.15;2.42;;;;;;;14.41;66.07;97313.13;4934888;28;20056;-76
2022/12/26 11:44:53;;;;;;;2.67;2.30;;;;;;;14.48;66.09;97312.84;4933804;28;20087;-77
2022/12/26 11:47:21;;;;;;;2.83;2.25;;;;;;;14.71;65.39;97314.91;4951136;28;20186;-76
2022/12/26 11:50:09;;;;;;;2.08;1.88;;;;;;;14.68;65.50;97304.94;4926572;28;20052;-77
2022/12/26 11:52:42;;;;;;;2.95;2.20;;;;;;;14.75;65.29;97297.63;4932197;28;20816;-77
2022/12/26 11:55:26;;;;;;;2.70;1.98;;;;;;;14.78;65.01;97293.66;4926246;28;20261;-77
2022/12/26 11:58:07;;;;;;;3.88;2.15;;;;;;;14.76;64.49;97288.69;4953198;28;20057;-77
2022/12/26 12:00:34;;;;;;;4.70;2.45;;;;;;;14.64;65.12;97282.19;4974765;28;20025;-77
2022/12/26 12:03:00;;;;;;;3.00;2.08;;;;;;;14.59;65.63;97280.38;4957154;28;20029;-77
2022/12/26 12:05:44;;;;;;;2.53;1.77;;;;;;;14.53;64.53;97281.38;4941093;28;20816;-77
2022/12/26 12:08:27;;;;;;;2.17;1.70;;;;;;;14.58;64.89;97278.75;4970084;28;20036;-77
2022/12/26 12:11:08;;;;;;;2.05;1.30;;;;;;;14.58;64.62;97278.75;4920290;28;20621;-77
2022/12/26 12:13:52;;;;;;;1.65;1.55;;;;;;;14.66;64.52;97286.09;4936857;28;20060;-77
2022/12/26 12:16:38;;;;;;;2.58;1.42;;;;;;;14.38;65.01;97284.84;4939026;28;20067;-77
2022/12/26 12:19:13;;;;;;;3.55;1.45;;;;;;;14.74;63.92;97282.16;4912981;28;20103;-77
2022/12/26 12:21:42;;;;;;;3.35;1.60;;;;;;;14.34;64.97;97281.19;4932866;28;20029;-75
2022/12/26 12:24:24;;;;;;;3.03;1.48;;;;;;;14.62;64.00;97279.84;4939403;28;20649;-76
2022/12/26 12:27:08;;;;;;;2.45;1.40;;;;;;;14.34;64.01;97263.66;4942002;28;20048;-76
2022/12/26 12:29:57;;;;;;;3.47;1.40;;;;;;;14.66;64.23;97277.47;4952876;28;20025;-76
2022/12/26 12:32:28;;;;;;;3.95;1.20;;;;;;;14.61;64.02;97273.78;4938569;28;20711;-76
2022/12/26 12:35:10;;;;;;;3.70;1.50;;;;;;;14.87;64.24;97270.28;4920524;28;20661;-78
2022/12/26 12:38:13;;;;;;;3.25;1.73;;;;;;;14.64;64.15;97269.09;4933868;28;20118;-77
2022/12/26 12:40:50;;;;;;;2.33;1.40;;;;;;;14.77;64.11;97271.91;4953509;28;20033;-77
2022/12/26 12:43:21;;;;;;;2.58;2.00;;;;;;;14.73;63.75;97268.25;4955675;28;20671;-78
2022/12/26 12:45:57;;;;;;;2.30;1.23;;;;;;;14.81;64.84;97268.75;4953109;28;20706;-76
2022/12/26 12:48:31;;;;;;;1.50;1.40;;;;;;;15.00;63.99;97264.47;4910461;28;20620;-77
2022/12/26 12:51:12;;;;;;;2.65;1.50;;;;;;;14.43;64.61;97259.41;4962688;28;20258;-77
2022/12/26 12:54:02;;;;;;;3.63;1.30;;;;;;;14.52;65.03;97259.66;4952850;28;20188;-78
2022/12/26 12:56:55;;;;;;;2.45;1.65;;;;;;;14.91;64.05;97256.38;4944813;28;20824;-77
2022/12/26 12:59:26;;;;;;;4.18;1.40;;;;;;;14.87;63.02;97262.44;4952324;28;21601;-78
2022/12/26 13:01:55;;;;;;;1.90;1.45;;;;;;;14.53;63.83;97256.00;4952303;28;20094;-77
2022/12/26 13:04:21;;;;;;;2.63;1.33;;;;;;;14.45;63.79;97253.16;4955292;28;20311;-76
2022/12/26 13:06:51;;;;;;;1.77;1.40;;;;;;;14.72;63.99;97264.06;4953807;28;20044;-77
2022/12/26 13:09:21;;;;;;;3.40;1.20;;;;;;;14.24;65.18;97261.06;4958464;28;20178;-77
2022/12/26 13:11:57;;;;;;;2.33;1.73;;;;;;;14.41;64.39;97252.88;4956386;28;20035;-76
2022/12/26 13:14:44;;;;;;;5.78;1.58;;;;;;;14.50;64.11;97250.50;4941508;28;20325;-77
2022/12/26 13:17:29;;;;;;;1.85;1.00;;;;;;;14.52;64.76;97253.63;4930910;28;20021;-77
2022/12/26 13:20:06;;;;;;;2.35;0.90;;;;;;;14.54;63.76;97235.81;4954042;28;20036;-77
2022/12/26 13:25:32;;;;;;;1.77;1.00;;;;;;;14.60;64.50;97251.28;4939161;28;20836;-76
2022/12/26 13:28:08;;;;;;;3.22;0.93;;;;;;;14.58;64.76;97263.03;4922911;28;20059;-76
2022/12/26 13:30:34;;;;;;;2.05;1.00;;;;;;;14.59;65.08;97270.66;4939895;28;20554;-76
2022/12/26 13:33:00;;;;;;;1.35;0.63;;;;;;;14.54;64.66;97267.25;4952109;28;20051;-76
2022/12/26 13:35:55;;;;;;;3.97;1.40;;;;;;;14.48;64.79;97266.50;4913783;28;20030;-76
2022/12/26 13:38:22;;;;;;;2.83;0.80;;;;;;;14.49;65.20;97267.25;4951734;28;20136;-77
2022/12/26 13:44:23;;;;;;;2.35;1.00;;;;;;;14.70;64.23;97260.94;4953237;28;20064;-78
2022/12/26 13:46:48;;;;;;;1.80;0.90;;;;;;;14.17;65.18;97273.63;4928421;28;20071;-76
2022/12/26 13:49:39;;;;;;;0.70;0.63;;;;;;;14.53;64.26;97265.66;4946714;28;20020;-77
2022/12/26 13:52:11;;;;;;;2.00;0.80;;;;;;;14.57;64.61;97266.72;4937341;28;20029;-78
2022/12/26 13:55:05;;;;;;;0.98;0.60;;;;;;;14.57;64.49;97267.50;4936807;28;20149;-76
2022/12/26 13:57:41;;;;;;;1.27;0.70;;;;;;;14.45;64.39;97253.16;4952973;28;20057;-77
2022/12/26 14:00:39;;;;;;;1.30;0.60;;;;;;;14.40;64.83;97259.19;4951424;28;20436;-77
2022/12/26 14:03:11;;;;;;;1.45;0.88;;;;;;;14.27;65.77;97257.88;4919283;28;20756;-76
2022/12/26 14:05:58;;;;;;;2.75;0.85;;;;;;;14.28;64.96;97254.22;4934992;28;20036;-77